createdAt,value
2018-11-29T00:00:45.822Z,20.93
2018-11-29T00:01:45.816Z,20.99
2018-11-29T00:02:45.814Z,21.03
2018-11-29T00:03:45.800Z,21.03
2018-11-29T00:04:45.829Z,20.97
2018-11-29T00:05:45.800Z,20.84
2018-11-29T00:06:45.869Z,20.84
2018-11-29T00:07:45.748Z,20.96
2018-11-29T00:08:45.873Z,20.88
2018-11-29T00:09:45.741Z,20.85
2018-11-29T00:10:45.727Z,20.82
2018-11-29T00:11:45.702Z,20.87
2018-11-29T00:12:45.727Z,20.81
2018-11-29T00:13:45.703Z,20.90
2018-11-29T00:14:45.709Z,20.88
2018-11-29T00:15:45.657Z,20.84
2018-11-29T00:16:45.694Z,20.92
2018-11-29T00:17:45.650Z,20.82
2018-11-29T00:18:45.620Z,20.99
2018-11-29T00:19:45.627Z,20.96
2018-11-29T00:20:45.704Z,21.00
2018-11-29T00:21:45.615Z,20.90
2018-11-29T00:22:45.592Z,21.02
2018-11-29T00:23:45.563Z,20.95
2018-11-29T00:24:45.583Z,20.96
2018-11-29T00:25:45.555Z,21.15
2018-11-29T00:26:45.605Z,21.11
2018-11-29T00:27:45.542Z,21.06
2018-11-29T00:28:45.516Z,21.09
2018-11-29T00:29:45.506Z,21.03
2018-11-29T00:30:45.490Z,21.00
2018-11-29T00:31:45.524Z,21.02
2018-11-29T00:32:45.481Z,20.96
2018-11-29T00:33:45.471Z,20.99
2018-11-29T00:34:45.591Z,21.00
2018-11-29T00:35:45.445Z,20.95
2018-11-29T00:36:45.421Z,20.95
2018-11-29T00:37:45.417Z,20.97
2018-11-29T00:38:45.460Z,20.90
2018-11-29T00:39:45.411Z,20.87
2018-11-29T00:40:45.426Z,20.88
2018-11-29T00:41:45.382Z,20.85
2018-11-29T00:42:45.366Z,20.81
2018-11-29T00:43:45.366Z,20.85
2018-11-29T00:44:45.333Z,20.81
2018-11-29T00:45:45.340Z,20.84
2018-11-29T00:46:45.350Z,20.88
2018-11-29T00:47:45.297Z,20.80
2018-11-29T00:48:45.298Z,20.85
2018-11-29T00:49:45.287Z,20.88
2018-11-29T00:50:45.271Z,20.88
2018-11-29T00:51:45.261Z,20.84
2018-11-29T00:52:45.244Z,20.82
2018-11-29T00:53:45.266Z,20.85
2018-11-29T00:54:45.217Z,20.90
2018-11-29T00:55:45.220Z,20.85
2018-11-29T00:56:45.194Z,20.84
2018-11-29T00:57:45.281Z,20.82
2018-11-29T00:58:45.203Z,20.99
2018-11-29T00:59:45.164Z,20.97
2018-11-29T01:00:45.224Z,20.96
2018-11-29T01:01:45.135Z,21.00
2018-11-29T01:02:45.178Z,20.92
2018-11-29T01:03:45.120Z,21.03
2018-11-29T01:04:49.759Z,21.03
2018-11-29T01:05:45.100Z,21.00
2018-11-29T01:06:45.124Z,20.99
2018-11-29T01:07:45.088Z,21.06
2018-11-29T01:08:45.077Z,20.99
2018-11-29T01:09:45.092Z,20.93
2018-11-29T01:10:45.149Z,20.92
2018-11-29T01:11:45.048Z,21.02
2018-11-29T01:12:45.017Z,21.03
2018-11-29T01:13:45.018Z,21.12
2018-11-29T01:14:45.002Z,21.12
2018-11-29T01:15:45.034Z,20.99
2018-11-29T01:16:44.985Z,20.96
2018-11-29T01:17:44.982Z,21.00
2018-11-29T01:18:44.997Z,21.00
2018-11-29T01:19:44.996Z,21.02
2018-11-29T01:20:44.968Z,20.88
2018-11-29T01:21:44.963Z,20.95
2018-11-29T01:22:44.943Z,20.88
2018-11-29T01:23:44.899Z,20.88
2018-11-29T01:24:44.925Z,20.84
2018-11-29T01:25:44.965Z,20.75
2018-11-29T01:26:44.872Z,20.81
2018-11-29T01:27:44.848Z,20.93
2018-11-29T01:28:44.906Z,20.84
2018-11-29T01:29:44.899Z,20.90
2018-11-29T01:30:44.888Z,20.87
2018-11-29T01:31:44.819Z,20.97
2018-11-29T01:32:44.832Z,20.84
2018-11-29T01:33:44.794Z,20.99
2018-11-29T01:34:44.874Z,20.96
2018-11-29T01:35:44.787Z,20.99
2018-11-29T01:36:44.762Z,20.92
2018-11-29T01:37:44.734Z,20.92
2018-11-29T01:38:44.749Z,20.95
2018-11-29T01:39:44.730Z,20.82
2018-11-29T01:40:44.712Z,20.97
2018-11-29T01:41:44.699Z,20.80
2018-11-29T01:42:44.708Z,20.84
2018-11-29T01:43:44.669Z,20.84
2018-11-29T01:44:44.660Z,20.85
2018-11-29T01:45:44.667Z,20.85
2018-11-29T01:46:44.685Z,20.85
2018-11-29T01:47:44.634Z,20.92
2018-11-29T01:48:44.625Z,20.85
2018-11-29T01:49:44.616Z,20.90
2018-11-29T01:50:44.630Z,20.85
2018-11-29T01:51:44.607Z,20.82
2018-11-29T01:52:44.581Z,20.82
2018-11-29T01:53:44.566Z,20.82
2018-11-29T01:54:44.578Z,20.80
2018-11-29T01:55:44.547Z,20.84
2018-11-29T01:56:44.554Z,20.92
2018-11-29T01:57:44.552Z,20.99
2018-11-29T01:58:44.501Z,21.03
2018-11-29T01:59:44.503Z,20.95
2018-11-29T02:00:44.573Z,20.96
2018-11-29T02:01:44.502Z,21.07
2018-11-29T02:02:44.501Z,20.99
2018-11-29T02:03:44.465Z,21.03
2018-11-29T02:04:44.513Z,21.09
2018-11-29T02:05:44.461Z,20.97
2018-11-29T02:06:44.443Z,21.11
2018-11-29T02:07:44.404Z,21.09
2018-11-29T02:08:44.418Z,21.05
2018-11-29T02:09:44.394Z,21.05
2018-11-29T02:10:44.364Z,21.02
2018-11-29T02:11:44.442Z,21.00
2018-11-29T02:12:44.346Z,20.99
2018-11-29T02:13:44.362Z,20.97
2018-11-29T02:14:44.326Z,20.88
2018-11-29T02:15:44.316Z,20.78
2018-11-29T02:16:44.308Z,20.95
2018-11-29T02:17:44.330Z,20.95
2018-11-29T02:18:44.332Z,20.82
2018-11-29T02:19:44.317Z,20.84
2018-11-29T02:20:44.254Z,20.81
2018-11-29T02:21:44.255Z,20.85
2018-11-29T02:22:44.245Z,20.90
2018-11-29T02:23:44.247Z,20.84
2018-11-29T02:24:44.250Z,20.84
2018-11-29T02:25:44.193Z,20.84
2018-11-29T02:26:44.204Z,20.82
2018-11-29T02:27:44.192Z,20.85
2018-11-29T02:28:44.164Z,20.85
2018-11-29T02:29:44.177Z,20.81
2018-11-29T02:30:44.153Z,20.95
2018-11-29T02:31:44.126Z,20.97
2018-11-29T02:32:44.131Z,20.92
2018-11-29T02:33:44.106Z,20.95
2018-11-29T02:34:44.145Z,20.85
2018-11-29T02:35:44.098Z,20.93
2018-11-29T02:36:44.085Z,20.92
2018-11-29T02:37:44.129Z,20.87
2018-11-29T02:38:44.070Z,20.80
2018-11-29T02:39:44.109Z,20.85
2018-11-29T02:40:44.062Z,20.87
2018-11-29T02:41:44.085Z,20.87
2018-11-29T02:42:44.099Z,20.87
2018-11-29T02:43:43.998Z,20.84
2018-11-29T02:44:43.995Z,20.81
2018-11-29T02:45:44.065Z,20.90
2018-11-29T02:46:43.961Z,20.90
2018-11-29T02:47:44.058Z,20.85
2018-11-29T02:48:43.940Z,20.93
2018-11-29T02:49:43.925Z,21.05
2018-11-29T02:50:43.961Z,21.00
2018-11-29T02:51:43.932Z,20.99
2018-11-29T02:52:43.924Z,21.00
2018-11-29T02:53:43.891Z,20.97
2018-11-29T02:54:43.867Z,21.00
2018-11-29T02:55:43.869Z,21.00
2018-11-29T02:56:43.883Z,21.00
2018-11-29T02:57:43.856Z,20.99
2018-11-29T02:58:43.831Z,20.85
2018-11-29T02:59:43.871Z,20.93
2018-11-29T03:00:43.864Z,20.96
2018-11-29T03:01:43.789Z,20.93
2018-11-29T03:02:43.848Z,20.90
2018-11-29T03:03:43.797Z,21.00
2018-11-29T03:04:43.813Z,20.87
2018-11-29T03:05:43.755Z,20.99
2018-11-29T03:06:43.808Z,21.03
2018-11-29T03:07:43.735Z,20.95
2018-11-29T03:08:43.766Z,20.92
2018-11-29T03:09:43.711Z,20.99
2018-11-29T03:10:43.760Z,20.93
2018-11-29T03:11:43.685Z,20.85
2018-11-29T03:12:43.776Z,20.88
2018-11-29T03:13:43.655Z,20.85
2018-11-29T03:14:43.644Z,20.80
2018-11-29T03:15:43.663Z,20.80
2018-11-29T03:16:43.663Z,20.82
2018-11-29T03:17:43.617Z,20.78
2018-11-29T03:18:43.675Z,20.82
2018-11-29T03:19:43.587Z,20.81
2018-11-29T03:20:43.647Z,20.88
2018-11-29T03:21:43.611Z,20.87
2018-11-29T03:22:43.562Z,20.81
2018-11-29T03:23:43.573Z,20.85
2018-11-29T03:24:43.560Z,20.85
2018-11-29T03:25:43.537Z,20.85
2018-11-29T03:26:43.513Z,20.85
2018-11-29T03:27:43.532Z,20.85
2018-11-29T03:28:43.505Z,20.87
2018-11-29T03:29:43.511Z,20.88
2018-11-29T03:30:43.467Z,20.88
2018-11-29T03:31:43.482Z,20.85
2018-11-29T03:32:43.486Z,20.96
2018-11-29T03:33:43.448Z,20.95
2018-11-29T03:34:43.417Z,20.99
2018-11-29T03:35:44.643Z,20.99
2018-11-29T03:36:43.393Z,20.90
2018-11-29T03:37:43.412Z,21.11
2018-11-29T03:38:43.397Z,20.95
2018-11-29T03:39:43.387Z,20.99
2018-11-29T03:40:43.434Z,21.02
2018-11-29T03:41:43.350Z,20.92
2018-11-29T03:42:43.364Z,20.99
2018-11-29T03:43:43.328Z,20.99
2018-11-29T03:44:43.334Z,20.97
2018-11-29T03:45:43.304Z,20.96
2018-11-29T03:46:43.279Z,21.00
2018-11-29T03:47:43.272Z,20.99
2018-11-29T03:48:43.294Z,20.97
2018-11-29T03:49:43.249Z,20.85
2018-11-29T03:50:43.242Z,20.82
2018-11-29T03:51:43.247Z,20.96
2018-11-29T03:52:43.237Z,20.96
2018-11-29T03:53:43.211Z,20.84
2018-11-29T03:54:43.202Z,20.84
2018-11-29T03:55:43.176Z,20.85
2018-11-29T03:56:43.175Z,20.87
2018-11-29T03:57:43.189Z,20.85
2018-11-29T03:58:43.158Z,20.84
2018-11-29T03:59:43.200Z,20.87
2018-11-29T04:00:43.135Z,20.80
2018-11-29T04:01:43.123Z,20.90
2018-11-29T04:02:43.140Z,20.90
2018-11-29T04:03:43.109Z,20.81
2018-11-29T04:04:43.216Z,20.80
2018-11-29T04:05:43.067Z,20.81
2018-11-29T04:06:43.064Z,20.82
2018-11-29T04:07:43.046Z,20.90
2018-11-29T04:08:43.074Z,21.00
2018-11-29T04:09:43.048Z,20.82
2018-11-29T04:10:43.031Z,20.85
2018-11-29T04:11:43.000Z,20.81
2018-11-29T04:12:42.988Z,20.85
2018-11-29T04:13:42.992Z,20.88
2018-11-29T04:14:43.065Z,20.85
2018-11-29T04:15:42.971Z,20.90
2018-11-29T04:16:42.968Z,20.88
2018-11-29T04:17:42.980Z,20.82
2018-11-29T04:18:42.925Z,20.82
2018-11-29T04:19:42.954Z,20.82
2018-11-29T04:20:42.900Z,20.81
2018-11-29T04:21:42.938Z,20.80
2018-11-29T04:22:42.926Z,20.81
2018-11-29T04:23:42.949Z,20.84
2018-11-29T04:24:42.863Z,20.85
2018-11-29T04:25:42.881Z,20.81
2018-11-29T04:26:42.866Z,20.95
2018-11-29T04:27:42.844Z,20.97
2018-11-29T04:28:42.859Z,21.03
2018-11-29T04:29:42.827Z,21.03
2018-11-29T04:30:42.790Z,20.96
2018-11-29T04:31:42.831Z,21.09
2018-11-29T04:32:42.797Z,21.07
2018-11-29T04:33:42.790Z,21.11
2018-11-29T04:34:42.801Z,20.93
2018-11-29T04:35:42.730Z,20.97
2018-11-29T04:36:42.733Z,20.99
2018-11-29T04:37:42.736Z,20.95
2018-11-29T04:38:42.701Z,20.96
2018-11-29T04:39:42.722Z,20.99
2018-11-29T04:40:42.685Z,20.90
2018-11-29T04:41:42.683Z,20.95
2018-11-29T04:42:42.681Z,20.92
2018-11-29T04:43:42.654Z,20.84
2018-11-29T04:44:42.677Z,20.84
2018-11-29T04:45:42.658Z,20.87
2018-11-29T04:46:42.679Z,20.84
2018-11-29T04:47:42.677Z,20.82
2018-11-29T04:48:42.613Z,20.85
2018-11-29T04:49:42.653Z,20.87
2018-11-29T04:50:42.596Z,20.78
2018-11-29T04:51:42.607Z,20.82
2018-11-29T04:52:42.615Z,20.84
2018-11-29T04:53:42.539Z,20.85
2018-11-29T04:54:42.532Z,20.80
2018-11-29T04:55:42.505Z,20.82
2018-11-29T04:56:42.534Z,20.85
2018-11-29T04:57:42.493Z,20.90
2018-11-29T04:58:42.476Z,20.84
2018-11-29T04:59:42.471Z,20.80
2018-11-29T05:00:42.451Z,20.84
2018-11-29T05:01:42.470Z,20.88
2018-11-29T05:02:42.465Z,20.85
2018-11-29T05:03:42.539Z,20.95
2018-11-29T05:04:42.454Z,20.95
2018-11-29T05:05:42.397Z,21.00
2018-11-29T05:06:42.392Z,20.87
2018-11-29T05:07:42.403Z,20.95
2018-11-29T05:08:42.381Z,20.84
2018-11-29T05:09:42.360Z,20.82
2018-11-29T05:10:42.341Z,20.82
2018-11-29T05:11:42.362Z,20.90
2018-11-29T05:12:42.329Z,20.88
2018-11-29T05:13:42.343Z,20.85
2018-11-29T05:14:42.338Z,20.85
2018-11-29T05:15:42.300Z,21.00
2018-11-29T05:16:42.269Z,20.85
2018-11-29T05:17:42.272Z,20.97
2018-11-29T05:18:42.258Z,20.99
2018-11-29T05:19:42.271Z,21.00
2018-11-29T05:20:42.226Z,21.00
2018-11-29T05:21:42.235Z,20.99
2018-11-29T05:22:42.205Z,20.92
2018-11-29T05:23:42.192Z,21.00
2018-11-29T05:24:42.197Z,21.07
2018-11-29T05:25:42.177Z,21.02
2018-11-29T05:26:42.153Z,20.99
2018-11-29T05:27:42.169Z,20.95
2018-11-29T05:28:42.142Z,20.84
2018-11-29T05:29:42.130Z,20.93
2018-11-29T05:30:42.133Z,20.92
2018-11-29T05:31:42.128Z,20.84
2018-11-29T05:32:42.144Z,20.97
2018-11-29T05:33:42.085Z,20.88
2018-11-29T05:34:42.190Z,20.84
2018-11-29T05:35:42.091Z,20.84
2018-11-29T05:36:42.083Z,20.90
2018-11-29T05:37:42.069Z,20.93
2018-11-29T05:38:42.027Z,20.88
2018-11-29T05:39:42.023Z,20.80
2018-11-29T05:40:42.025Z,20.82
2018-11-29T05:41:42.007Z,20.88
2018-11-29T05:42:42.022Z,20.90
2018-11-29T05:43:41.979Z,20.92
2018-11-29T05:44:41.963Z,20.85
2018-11-29T05:45:41.983Z,20.88
2018-11-29T05:46:42.677Z,20.82
2018-11-29T05:47:41.929Z,20.84
2018-11-29T05:48:41.925Z,20.87
2018-11-29T05:49:41.902Z,20.85
2018-11-29T05:50:41.911Z,20.81
2018-11-29T05:51:41.876Z,20.85
2018-11-29T05:52:42.090Z,20.84
2018-11-29T05:53:41.890Z,20.81
2018-11-29T05:54:41.882Z,20.84
2018-11-29T05:55:41.924Z,20.87
2018-11-29T05:56:41.827Z,20.87
2018-11-29T05:57:41.820Z,20.85
2018-11-29T05:58:41.824Z,20.87
2018-11-29T05:59:41.784Z,20.96
2018-11-29T06:00:41.856Z,20.84
2018-11-29T06:01:41.762Z,20.99
2018-11-29T06:02:41.755Z,20.82
2018-11-29T06:03:41.741Z,20.95
2018-11-29T06:04:41.817Z,20.99
2018-11-29T06:05:41.738Z,21.05
2018-11-29T06:06:41.721Z,21.14
2018-11-29T06:07:41.897Z,20.97
2018-11-29T06:08:41.686Z,20.95
2018-11-29T06:09:41.713Z,21.11
2018-11-29T06:10:41.982Z,21.11
2018-11-29T06:11:41.677Z,21.11
2018-11-29T06:12:41.648Z,21.00
2018-11-29T06:13:41.660Z,21.15
2018-11-29T06:14:41.618Z,21.12
2018-11-29T06:15:41.708Z,21.05
2018-11-29T06:16:41.590Z,21.05
2018-11-29T06:17:41.601Z,21.00
2018-11-29T06:18:41.573Z,21.00
2018-11-29T06:19:41.589Z,20.88
2018-11-29T06:20:41.567Z,20.99
2018-11-29T06:21:41.558Z,20.99
2018-11-29T06:22:41.553Z,20.95
2018-11-29T06:23:41.538Z,20.96
2018-11-29T06:24:41.514Z,20.93
2018-11-29T06:25:41.499Z,20.87
2018-11-29T06:26:41.492Z,20.88
2018-11-29T06:27:41.509Z,21.00
2018-11-29T06:28:41.543Z,20.96
2018-11-29T06:29:41.451Z,20.92
2018-11-29T06:30:41.499Z,20.93
2018-11-29T06:31:41.479Z,21.02
2018-11-29T06:32:41.466Z,20.95
2018-11-29T06:33:41.465Z,21.03
2018-11-29T06:34:41.500Z,21.00
2018-11-29T06:35:41.444Z,20.99
2018-11-29T06:36:41.385Z,20.96
2018-11-29T06:37:41.357Z,21.03
2018-11-29T06:38:41.363Z,21.11
2018-11-29T06:39:41.432Z,21.05
2018-11-29T06:40:41.351Z,21.02
2018-11-29T06:41:41.367Z,21.02
2018-11-29T06:42:41.430Z,20.97
2018-11-29T06:43:41.300Z,21.00
2018-11-29T06:44:41.303Z,20.84
2018-11-29T06:45:41.286Z,21.02
2018-11-29T06:46:41.258Z,20.90
2018-11-29T06:47:41.250Z,20.96
2018-11-29T06:48:41.278Z,20.95
2018-11-29T06:49:41.290Z,21.02
2018-11-29T06:50:41.336Z,20.97
2018-11-29T06:51:41.214Z,20.96
2018-11-29T06:52:41.224Z,20.96
2018-11-29T06:53:41.188Z,20.99
2018-11-29T06:54:41.249Z,21.00
2018-11-29T06:55:41.185Z,20.95
2018-11-29T06:56:41.144Z,21.00
2018-11-29T06:57:41.131Z,21.03
2018-11-29T06:58:41.144Z,21.06
2018-11-29T06:59:41.115Z,21.07
2018-11-29T07:00:41.123Z,21.11
2018-11-29T07:01:41.093Z,21.18
2018-11-29T07:02:41.075Z,21.22
2018-11-29T07:03:41.089Z,21.15
2018-11-29T07:04:41.190Z,21.14
2018-11-29T07:05:41.113Z,21.14
2018-11-29T07:06:41.071Z,21.05
2018-11-29T07:07:41.042Z,21.09
2018-11-29T07:08:41.009Z,21.11
2018-11-29T07:09:41.006Z,21.12
2018-11-29T07:10:40.994Z,21.03
2018-11-29T07:11:40.982Z,20.99
2018-11-29T07:12:40.965Z,21.09
2018-11-29T07:13:40.969Z,21.02
2018-11-29T07:14:40.957Z,21.14
2018-11-29T07:15:40.967Z,21.07
2018-11-29T07:16:40.981Z,21.06
2018-11-29T07:17:40.936Z,20.95
2018-11-29T07:18:40.915Z,20.97
2018-11-29T07:19:40.908Z,21.11
2018-11-29T07:20:40.888Z,21.03
2018-11-29T07:21:40.924Z,21.07
2018-11-29T07:22:40.919Z,20.93
2018-11-29T07:23:40.880Z,21.07
2018-11-29T07:24:40.874Z,21.11
2018-11-29T07:25:40.917Z,21.06
2018-11-29T07:26:40.825Z,20.99
2018-11-29T07:27:40.830Z,21.11
2018-11-29T07:28:40.794Z,21.06
2018-11-29T07:29:40.811Z,21.07
2018-11-29T07:30:40.851Z,21.09
2018-11-29T07:31:40.814Z,21.12
2018-11-29T07:32:40.755Z,21.09
2018-11-29T07:33:40.739Z,21.12
2018-11-29T07:34:40.855Z,21.14
2018-11-29T07:35:40.729Z,21.20
2018-11-29T07:36:40.716Z,21.21
2018-11-29T07:37:40.729Z,21.24
2018-11-29T07:38:40.741Z,21.25
2018-11-29T07:39:40.766Z,21.33
2018-11-29T07:40:40.646Z,21.25
2018-11-29T07:41:40.649Z,21.35
2018-11-29T07:42:40.647Z,21.24
2018-11-29T07:43:40.664Z,21.39
2018-11-29T07:44:40.600Z,21.39
2018-11-29T07:45:40.598Z,21.46
2018-11-29T07:46:40.595Z,21.50
2018-11-29T07:47:40.586Z,21.48
2018-11-29T07:48:40.570Z,21.50
2018-11-29T07:49:40.552Z,21.54
2018-11-29T07:50:40.562Z,21.55
2018-11-29T07:51:40.532Z,21.50
2018-11-29T07:52:40.531Z,21.54
2018-11-29T07:53:40.513Z,21.50
2018-11-29T07:54:40.487Z,21.60
2018-11-29T07:55:40.477Z,21.54
2018-11-29T07:56:40.495Z,21.50
2018-11-29T07:57:40.474Z,21.58
2018-11-29T07:58:40.450Z,21.58
2018-11-29T07:59:40.449Z,21.45
2018-11-29T08:00:40.639Z,21.48
2018-11-29T08:01:40.455Z,21.50
2018-11-29T08:02:40.555Z,21.48
2018-11-29T08:03:40.389Z,21.42
2018-11-29T08:04:40.459Z,21.50
2018-11-29T08:05:40.434Z,21.50
2018-11-29T08:06:40.373Z,21.50
2018-11-29T08:07:40.528Z,21.45
2018-11-29T08:08:40.363Z,21.43
2018-11-29T08:09:40.356Z,21.51
2018-11-29T08:10:40.381Z,21.48
2018-11-29T08:11:40.413Z,21.51
2018-11-29T08:12:40.314Z,21.48
2018-11-29T08:13:40.281Z,21.46
2018-11-29T08:14:40.315Z,21.46
2018-11-29T08:15:40.262Z,21.43
2018-11-29T08:16:40.271Z,21.43
2018-11-29T08:17:40.344Z,21.45
2018-11-29T08:18:40.336Z,21.43
2018-11-29T08:19:40.230Z,21.50
2018-11-29T08:20:40.352Z,21.45
2018-11-29T08:21:40.188Z,21.50
2018-11-29T08:22:40.191Z,21.48
2018-11-29T08:23:40.208Z,21.46
2018-11-29T08:24:40.174Z,21.43
2018-11-29T08:25:40.307Z,21.42
2018-11-29T08:26:40.168Z,21.45
2018-11-29T08:27:40.351Z,21.43
2018-11-29T08:28:40.186Z,21.43
2018-11-29T08:29:40.114Z,21.46
2018-11-29T08:30:40.134Z,21.48
2018-11-29T08:31:40.109Z,21.48
2018-11-29T08:32:40.065Z,21.51
2018-11-29T08:33:40.071Z,21.52
2018-11-29T08:34:40.162Z,21.52
2018-11-29T08:35:40.091Z,21.61
2018-11-29T08:36:40.078Z,21.62
2018-11-29T08:37:40.014Z,21.64
2018-11-29T08:38:40.004Z,21.70
2018-11-29T08:39:40.001Z,21.69
2018-11-29T08:40:40.032Z,21.66
2018-11-29T08:41:40.070Z,21.58
2018-11-29T08:42:39.974Z,21.67
2018-11-29T08:43:39.992Z,21.55
2018-11-29T08:44:40.015Z,21.60
2018-11-29T08:45:39.950Z,21.58
2018-11-29T08:46:39.908Z,21.45
2018-11-29T08:47:39.913Z,21.27
2018-11-29T08:48:39.891Z,20.50
2018-11-29T08:49:39.896Z,20.06
2018-11-29T08:50:39.888Z,19.62
2018-11-29T08:51:39.871Z,19.45
2018-11-29T08:52:39.854Z,19.45
2018-11-29T08:53:39.830Z,19.51
2018-11-29T08:54:39.836Z,19.70
2018-11-29T08:55:39.817Z,19.91
2018-11-29T08:56:39.796Z,19.91
2018-11-29T08:57:39.790Z,20.13
2018-11-29T08:58:39.787Z,20.11
2018-11-29T08:59:39.781Z,19.84
2018-11-29T09:00:39.764Z,19.41
2018-11-29T09:01:39.749Z,19.12
2018-11-29T09:02:39.734Z,18.89
2018-11-29T09:03:39.783Z,18.84
2018-11-29T09:04:39.729Z,18.75
2018-11-29T09:05:39.692Z,18.83
2018-11-29T09:06:39.700Z,18.43
2018-11-29T09:07:39.672Z,18.10
2018-11-29T09:08:39.727Z,17.94
2018-11-29T09:09:39.651Z,18.13
2018-11-29T09:10:39.639Z,18.00
2018-11-29T09:11:39.623Z,17.86
2018-11-29T09:12:39.615Z,17.86
2018-11-29T09:13:39.609Z,17.94
2018-11-29T09:14:39.613Z,17.95
2018-11-29T09:15:39.611Z,17.87
2018-11-29T09:16:39.569Z,17.65
2018-11-29T09:17:39.556Z,17.56
2018-11-29T09:18:39.571Z,17.56
2018-11-29T09:19:39.541Z,17.57
2018-11-29T09:20:39.528Z,17.92
2018-11-29T09:21:39.532Z,18.15
2018-11-29T09:22:39.500Z,18.05
2018-11-29T09:23:39.759Z,17.74
2018-11-29T09:24:39.485Z,17.14
2018-11-29T09:25:39.469Z,17.04
2018-11-29T09:26:39.457Z,17.04
2018-11-29T09:27:39.470Z,16.99
2018-11-29T09:28:39.457Z,16.96
2018-11-29T09:29:39.428Z,17.01
2018-11-29T09:30:39.427Z,16.89
2018-11-29T09:31:39.398Z,16.96
2018-11-29T09:32:39.385Z,16.89
2018-11-29T09:33:39.396Z,16.93
2018-11-29T09:34:39.489Z,17.19
2018-11-29T09:35:39.360Z,17.29
2018-11-29T09:36:39.371Z,17.45
2018-11-29T09:37:39.331Z,17.54
2018-11-29T09:38:39.369Z,17.63
2018-11-29T09:39:39.311Z,17.65
2018-11-29T09:40:39.302Z,17.78
2018-11-29T09:41:39.306Z,17.86
2018-11-29T09:42:39.363Z,17.92
2018-11-29T09:43:39.273Z,17.98
2018-11-29T09:44:39.260Z,18.16
2018-11-29T09:45:39.245Z,18.16
2018-11-29T09:46:39.243Z,17.97
2018-11-29T09:47:39.227Z,18.07
2018-11-29T09:48:39.209Z,18.16
2018-11-29T09:49:39.206Z,18.16
2018-11-29T09:50:39.191Z,18.34
2018-11-29T09:51:39.170Z,18.43
2018-11-29T09:52:39.161Z,18.37
2018-11-29T09:53:39.170Z,18.31
2018-11-29T09:54:39.162Z,18.22
2018-11-29T09:55:39.127Z,18.03
2018-11-29T09:56:39.115Z,17.80
2018-11-29T09:57:39.198Z,17.87
2018-11-29T09:58:39.112Z,18.00
2018-11-29T09:59:39.094Z,17.94
2018-11-29T10:00:39.100Z,18.04
2018-11-29T10:01:39.107Z,18.07
2018-11-29T10:02:39.049Z,18.16
2018-11-29T10:03:39.037Z,18.10
2018-11-29T10:04:39.114Z,17.90
2018-11-29T10:05:39.018Z,17.78
2018-11-29T10:06:39.017Z,17.83
2018-11-29T10:07:38.991Z,17.85
2018-11-29T10:08:39.034Z,17.87
2018-11-29T10:09:38.978Z,17.63
2018-11-29T10:10:38.986Z,17.56
2018-11-29T10:11:38.948Z,17.49
2018-11-29T10:12:39.063Z,17.14
2018-11-29T10:13:38.923Z,17.19
2018-11-29T10:14:38.927Z,17.45
2018-11-29T10:15:38.923Z,17.57
2018-11-29T10:16:38.887Z,17.74
2018-11-29T10:17:38.880Z,18.13
2018-11-29T10:18:38.864Z,18.18
2018-11-29T10:19:38.886Z,18.28
2018-11-29T10:20:38.870Z,18.29
2018-11-29T10:21:38.844Z,18.08
2018-11-29T10:22:38.823Z,18.33
2018-11-29T10:23:38.925Z,18.47
2018-11-29T10:24:38.796Z,18.66
2018-11-29T10:25:38.799Z,18.71
2018-11-29T10:26:38.803Z,18.60
2018-11-29T10:27:38.769Z,18.75
2018-11-29T10:28:38.751Z,18.75
2018-11-29T10:29:38.759Z,18.59
2018-11-29T10:30:38.735Z,18.59
2018-11-29T10:31:38.719Z,18.70
2018-11-29T10:32:38.723Z,18.75
2018-11-29T10:33:38.695Z,18.66
2018-11-29T10:34:38.751Z,18.68
2018-11-29T10:35:38.680Z,18.74
2018-11-29T10:36:38.660Z,18.47
2018-11-29T10:37:38.648Z,18.22
2018-11-29T10:38:38.653Z,18.13
2018-11-29T10:39:38.628Z,18.10
2018-11-29T10:40:38.621Z,18.19
2018-11-29T10:41:38.611Z,18.00
2018-11-29T10:42:38.655Z,17.68
2018-11-29T10:43:38.580Z,17.16
2018-11-29T10:44:38.577Z,17.02
2018-11-29T10:45:38.590Z,16.99
2018-11-29T10:46:38.550Z,17.04
2018-11-29T10:47:38.548Z,17.01
2018-11-29T10:48:38.525Z,16.89
2018-11-29T10:49:38.512Z,16.78
2018-11-29T10:50:38.507Z,16.39
2018-11-29T10:51:38.524Z,16.47
2018-11-29T10:52:38.480Z,16.76
2018-11-29T10:53:38.466Z,17.11
2018-11-29T10:54:38.458Z,17.51
2018-11-29T10:55:38.450Z,17.89
2018-11-29T10:56:38.436Z,18.11
2018-11-29T10:57:38.454Z,18.25
2018-11-29T10:58:38.418Z,18.23
2018-11-29T10:59:38.399Z,18.20
2018-11-29T11:00:38.409Z,18.44
2018-11-29T11:01:38.376Z,18.20
2018-11-29T11:02:38.365Z,18.20
2018-11-29T11:03:38.352Z,18.23
2018-11-29T11:04:38.364Z,18.00
2018-11-29T11:05:38.349Z,17.46
2018-11-29T11:06:38.345Z,17.02
2018-11-29T11:07:38.826Z,16.84
2018-11-29T11:08:38.298Z,16.69
2018-11-29T11:09:38.294Z,16.49
2018-11-29T11:10:38.345Z,16.43
2018-11-29T11:11:38.289Z,16.57
2018-11-29T11:12:38.249Z,16.43
2018-11-29T11:13:38.263Z,16.31
2018-11-29T11:14:38.272Z,16.39
2018-11-29T11:15:38.233Z,16.57
2018-11-29T11:16:38.215Z,16.78
2018-11-29T11:17:38.201Z,16.93
2018-11-29T11:18:38.182Z,16.87
2018-11-29T11:19:38.282Z,16.86
2018-11-29T11:20:38.216Z,16.94
2018-11-29T11:21:38.159Z,16.89
2018-11-29T11:22:38.148Z,17.08
2018-11-29T11:23:38.149Z,17.30
2018-11-29T11:24:38.203Z,17.44
2018-11-29T11:25:38.108Z,17.49
2018-11-29T11:26:38.117Z,17.44
2018-11-29T11:27:38.104Z,17.39
2018-11-29T11:28:38.067Z,17.38
2018-11-29T11:29:38.090Z,17.49
2018-11-29T11:30:38.055Z,17.78
2018-11-29T11:31:38.060Z,18.16
2018-11-29T11:32:38.038Z,18.41
2018-11-29T11:33:38.009Z,18.71
2018-11-29T11:34:38.029Z,18.89
2018-11-29T11:35:37.996Z,19.31
2018-11-29T11:36:37.981Z,19.36
2018-11-29T11:37:37.991Z,19.58
2018-11-29T11:38:37.959Z,19.71
2018-11-29T11:39:38.024Z,19.88
2018-11-29T11:40:37.940Z,19.96
2018-11-29T11:41:38.063Z,20.18
2018-11-29T11:42:37.921Z,20.32
2018-11-29T11:43:37.914Z,20.40
2018-11-29T11:44:37.904Z,20.47
2018-11-29T11:45:38.039Z,20.58
2018-11-29T11:46:37.898Z,20.65
2018-11-29T11:47:37.959Z,20.69
2018-11-29T11:48:37.871Z,20.72
2018-11-29T11:49:37.862Z,20.82
2018-11-29T11:50:37.910Z,20.84
2018-11-29T11:51:37.879Z,20.93
2018-11-29T11:52:37.815Z,20.92
2018-11-29T11:53:37.828Z,21.05
2018-11-29T11:54:37.801Z,21.06
2018-11-29T11:55:37.771Z,21.02
2018-11-29T11:56:37.780Z,21.07
2018-11-29T11:57:37.776Z,21.17
2018-11-29T11:58:37.729Z,21.09
2018-11-29T11:59:37.725Z,21.09
2018-11-29T12:00:37.731Z,21.20
2018-11-29T12:01:37.820Z,21.18
2018-11-29T12:02:37.799Z,21.20
2018-11-29T12:03:37.773Z,21.29
2018-11-29T12:04:37.774Z,21.27
2018-11-29T12:05:37.790Z,21.33
2018-11-29T12:06:37.648Z,21.25
2018-11-29T12:07:37.641Z,21.29
2018-11-29T12:08:37.692Z,21.36
2018-11-29T12:09:37.611Z,21.24
2018-11-29T12:10:37.623Z,21.29
2018-11-29T12:11:37.610Z,21.45
2018-11-29T12:12:37.610Z,21.40
2018-11-29T12:13:37.568Z,21.40
2018-11-29T12:14:37.577Z,21.51
2018-11-29T12:15:37.569Z,21.40
2018-11-29T12:16:37.562Z,21.46
2018-11-29T12:17:37.511Z,21.51
2018-11-29T12:18:37.515Z,21.60
2018-11-29T12:19:37.540Z,21.55
2018-11-29T12:20:37.487Z,21.72
2018-11-29T12:21:37.486Z,21.67
2018-11-29T12:22:37.454Z,21.70
2018-11-29T12:23:37.444Z,21.66
2018-11-29T12:24:37.439Z,21.67
2018-11-29T12:25:37.432Z,21.75
2018-11-29T12:26:37.424Z,21.72
2018-11-29T12:27:37.420Z,21.69
2018-11-29T12:28:37.414Z,21.73
2018-11-29T12:29:37.401Z,21.76
2018-11-29T12:30:37.373Z,21.75
2018-11-29T12:31:37.355Z,21.73
2018-11-29T12:32:37.343Z,21.75
2018-11-29T12:33:37.401Z,21.91
2018-11-29T12:34:37.425Z,21.89
2018-11-29T12:35:37.307Z,21.85
2018-11-29T12:36:37.323Z,21.83
2018-11-29T12:37:37.361Z,21.89
2018-11-29T12:38:37.285Z,21.93
2018-11-29T12:39:37.307Z,21.92
2018-11-29T12:40:37.274Z,21.85
2018-11-29T12:41:37.288Z,21.83
2018-11-29T12:42:37.269Z,21.98
2018-11-29T12:43:37.229Z,21.98
2018-11-29T12:44:37.241Z,21.96
2018-11-29T12:45:37.206Z,21.98
2018-11-29T12:46:37.212Z,22.02
2018-11-29T12:47:37.253Z,21.96
2018-11-29T12:48:37.222Z,21.99
2018-11-29T12:49:37.171Z,22.00
2018-11-29T12:50:37.196Z,21.96
2018-11-29T12:51:37.153Z,21.96
2018-11-29T12:52:37.126Z,22.06